sensor_id;sensor_type;location;lat;lon;timestamp;temperature;humidity
10812;DHT22;5458;51.496;7.334;2023-04-15T00:00:54;9.80;97.50
10812;DHT22;5458;51.496;7.334;2023-04-15T00:03:19;9.70;97.50
10812;DHT22;5458;51.496;7.334;2023-04-15T00:05:45;9.70;97.60
10812;DHT22;5458;51.496;7.334;2023-04-15T00:08:11;9.70;97.60
10812;DHT22;5458;51.496;7.334;2023-04-15T00:10:37;9.60;97.60
10812;DHT22;5458;51.496;7.334;2023-04-15T00:13:03;9.60;97.80
10812;DHT22;5458;51.496;7.334;2023-04-15T00:15:28;9.70;98.00
10812;DHT22;5458;51.496;7.334;2023-04-15T00:17:54;9.70;98.10
10812;DHT22;5458;51.496;7.334;2023-04-15T00:20:20;9.70;98.10
10812;DHT22;5458;51.496;7.334;2023-04-15T00:22:45;9.70;98.20
10812;DHT22;5458;51.496;7.334;2023-04-15T00:25:11;9.70;98.10
10812;DHT22;5458;51.496;7.334;2023-04-15T00:27:37;9.70;98.10
10812;DHT22;5458;51.496;7.334;2023-04-15T00:30:03;9.70;98.20
10812;DHT22;5458;51.496;7.334;2023-04-15T00:32:29;9.60;98.30
10812;DHT22;5458;51.496;7.334;2023-04-15T00:34:55;9.60;98.40
10812;DHT22;5458;51.496;7.334;2023-04-15T00:37:21;9.60;98.50
10812;DHT22;5458;51.496;7.334;2023-04-15T00:39:48;9.50;98.60
10812;DHT22;5458;51.496;7.334;2023-04-15T00:42:14;9.50;98.80
10812;DHT22;5458;51.496;7.334;2023-04-15T00:44:40;9.40;98.90
10812;DHT22;5458;51.496;7.334;2023-04-15T00:47:05;9.40;98.90
10812;DHT22;5458;51.496;7.334;2023-04-15T00:49:31;9.40;99.00
10812;DHT22;5458;51.496;7.334;2023-04-15T00:51:57;9.40;99.20
10812;DHT22;5458;51.496;7.334;2023-04-15T00:54:23;9.40;99.30
10812;DHT22;5458;51.496;7.334;2023-04-15T00:56:48;9.40;99.40
10812;DHT22;5458;51.496;7.334;2023-04-15T00:59:16;9.40;99.50
10812;DHT22;5458;51.496;7.334;2023-04-15T01:01:43;9.40;99.60
10812;DHT22;5458;51.496;7.334;2023-04-15T01:04:09;9.40;99.60
10812;DHT22;5458;51.496;7.334;2023-04-15T01:06:36;9.30;99.60
10812;DHT22;5458;51.496;7.334;2023-04-15T01:09:02;9.30;99.70
10812;DHT22;5458;51.496;7.334;2023-04-15T01:11:28;9.40;99.70
10812;DHT22;5458;51.496;7.334;2023-04-15T01:13:55;9.30;99.70
10812;DHT22;5458;51.496;7.334;2023-04-15T01:16:23;9.20;99.80
10812;DHT22;5458;51.496;7.334;2023-04-15T01:18:48;9.20;99.90
10812;DHT22;5458;51.496;7.334;2023-04-15T01:21:14;9.20;99.90
10812;DHT22;5458;51.496;7.334;2023-04-15T01:23:40;9.20;99.90
10812;DHT22;5458;51.496;7.334;2023-04-15T01:26:06;9.20;99.90
10812;DHT22;5458;51.496;7.334;2023-04-15T01:28:33;9.20;99.90
10812;DHT22;5458;51.496;7.334;2023-04-15T01:31:09;9.10;99.90
10812;DHT22;5458;51.496;7.334;2023-04-15T01:33:36;9.00;99.90
10812;DHT22;5458;51.496;7.334;2023-04-15T01:36:03;9.00;99.90
10812;DHT22;5458;51.496;7.334;2023-04-15T01:38:29;9.00;99.90
10812;DHT22;5458;51.496;7.334;2023-04-15T01:40:55;9.00;99.90
10812;DHT22;5458;51.496;7.334;2023-04-15T01:43:21;9.00;99.90
10812;DHT22;5458;51.496;7.334;2023-04-15T01:45:47;8.90;99.90
10812;DHT22;5458;51.496;7.334;2023-04-15T01:48:13;8.90;99.90
10812;DHT22;5458;51.496;7.334;2023-04-15T01:50:38;8.90;99.90
10812;DHT22;5458;51.496;7.334;2023-04-15T01:53:04;8.80;99.90
10812;DHT22;5458;51.496;7.334;2023-04-15T01:55:30;8.90;99.90
10812;DHT22;5458;51.496;7.334;2023-04-15T01:57:56;8.90;99.90
10812;DHT22;5458;51.496;7.334;2023-04-15T02:00:21;8.80;99.90
10812;DHT22;5458;51.496;7.334;2023-04-15T02:02:48;8.80;99.90
10812;DHT22;5458;51.496;7.334;2023-04-15T02:05:14;8.80;99.90
10812;DHT22;5458;51.496;7.334;2023-04-15T02:07:43;8.80;99.90
10812;DHT22;5458;51.496;7.334;2023-04-15T02:10:09;8.70;99.90
10812;DHT22;5458;51.496;7.334;2023-04-15T02:12:36;8.80;99.90
10812;DHT22;5458;51.496;7.334;2023-04-15T02:15:01;8.80;99.90
10812;DHT22;5458;51.496;7.334;2023-04-15T02:17:27;8.80;99.90
10812;DHT22;5458;51.496;7.334;2023-04-15T02:19:54;8.80;99.90
10812;DHT22;5458;51.496;7.334;2023-04-15T02:22:20;8.80;99.90
10812;DHT22;5458;51.496;7.334;2023-04-15T02:24:46;8.80;99.90
10812;DHT22;5458;51.496;7.334;2023-04-15T02:27:15;8.70;99.90
10812;DHT22;5458;51.496;7.334;2023-04-15T02:29:43;8.70;99.90
10812;DHT22;5458;51.496;7.334;2023-04-15T02:32:09;8.70;99.90
10812;DHT22;5458;51.496;7.334;2023-04-15T02:34:36;8.70;99.90
10812;DHT22;5458;51.496;7.334;2023-04-15T02:37:06;8.70;99.90
10812;DHT22;5458;51.496;7.334;2023-04-15T02:39:32;8.70;99.90
10812;DHT22;5458;51.496;7.334;2023-04-15T02:41:57;8.70;99.90
10812;DHT22;5458;51.496;7.334;2023-04-15T02:44:24;8.70;99.90
10812;DHT22;5458;51.496;7.334;2023-04-15T02:46:50;8.60;99.90
10812;DHT22;5458;51.496;7.334;2023-04-15T02:49:17;8.60;99.90
10812;DHT22;5458;51.496;7.334;2023-04-15T02:51:43;8.60;99.90
10812;DHT22;5458;51.496;7.334;2023-04-15T02:54:12;8.50;99.90
10812;DHT22;5458;51.496;7.334;2023-04-15T02:56:38;8.50;99.90
10812;DHT22;5458;51.496;7.334;2023-04-15T02:59:04;8.50;99.90
10812;DHT22;5458;51.496;7.334;2023-04-15T03:01:30;8.50;99.90
10812;DHT22;5458;51.496;7.334;2023-04-15T03:03:56;8.50;99.90
10812;DHT22;5458;51.496;7.334;2023-04-15T03:06:21;8.50;99.90
10812;DHT22;5458;51.496;7.334;2023-04-15T03:08:49;8.40;99.90
10812;DHT22;5458;51.496;7.334;2023-04-15T03:11:15;8.40;99.90
10812;DHT22;5458;51.496;7.334;2023-04-15T03:13:41;8.40;99.90
10812;DHT22;5458;51.496;7.334;2023-04-15T03:16:08;8.40;99.90
10812;DHT22;5458;51.496;7.334;2023-04-15T03:18:33;8.40;99.90
10812;DHT22;5458;51.496;7.334;2023-04-15T03:20:59;8.40;99.90
10812;DHT22;5458;51.496;7.334;2023-04-15T03:23:25;8.30;99.90
10812;DHT22;5458;51.496;7.334;2023-04-15T03:25:51;8.30;99.90
10812;DHT22;5458;51.496;7.334;2023-04-15T03:28:19;8.30;99.90
10812;DHT22;5458;51.496;7.334;2023-04-15T03:30:44;8.30;99.90
10812;DHT22;5458;51.496;7.334;2023-04-15T03:33:10;8.20;99.90
10812;DHT22;5458;51.496;7.334;2023-04-15T03:35:36;8.30;99.90
10812;DHT22;5458;51.496;7.334;2023-04-15T03:38:02;8.30;99.90
10812;DHT22;5458;51.496;7.334;2023-04-15T03:40:28;8.30;99.90
10812;DHT22;5458;51.496;7.334;2023-04-15T03:42:54;8.20;99.90
10812;DHT22;5458;51.496;7.334;2023-04-15T03:45:20;8.30;99.90
10812;DHT22;5458;51.496;7.334;2023-04-15T03:47:45;8.20;99.90
10812;DHT22;5458;51.496;7.334;2023-04-15T03:50:11;8.20;99.90
10812;DHT22;5458;51.496;7.334;2023-04-15T03:52:37;8.20;99.90
10812;DHT22;5458;51.496;7.334;2023-04-15T03:55:02;8.20;99.90
10812;DHT22;5458;51.496;7.334;2023-04-15T03:57:28;8.10;99.90
10812;DHT22;5458;51.496;7.334;2023-04-15T03:59:54;8.10;99.90
10812;DHT22;5458;51.496;7.334;2023-04-15T04:02:20;8.10;99.90
10812;DHT22;5458;51.496;7.334;2023-04-15T04:04:47;8.10;99.90
10812;DHT22;5458;51.496;7.334;2023-04-15T04:07:16;8.00;99.90
10812;DHT22;5458;51.496;7.334;2023-04-15T04:09:43;8.00;99.90
10812;DHT22;5458;51.496;7.334;2023-04-15T04:12:09;7.90;99.90
10812;DHT22;5458;51.496;7.334;2023-04-15T04:14:34;8.00;99.90
10812;DHT22;5458;51.496;7.334;2023-04-15T04:17:00;7.90;99.90
10812;DHT22;5458;51.496;7.334;2023-04-15T04:19:26;7.90;99.90
10812;DHT22;5458;51.496;7.334;2023-04-15T04:21:52;7.80;99.90
10812;DHT22;5458;51.496;7.334;2023-04-15T04:24:17;7.90;99.90
10812;DHT22;5458;51.496;7.334;2023-04-15T04:26:43;7.90;99.90
10812;DHT22;5458;51.496;7.334;2023-04-15T04:29:09;7.90;99.90
10812;DHT22;5458;51.496;7.334;2023-04-15T04:31:34;7.90;99.90
10812;DHT22;5458;51.496;7.334;2023-04-15T04:34:00;7.80;99.90
10812;DHT22;5458;51.496;7.334;2023-04-15T04:36:26;7.70;99.90
10812;DHT22;5458;51.496;7.334;2023-04-15T04:38:52;7.80;99.90
10812;DHT22;5458;51.496;7.334;2023-04-15T04:41:17;7.80;99.90
10812;DHT22;5458;51.496;7.334;2023-04-15T04:43:43;7.80;99.90
10812;DHT22;5458;51.496;7.334;2023-04-15T04:46:08;7.80;99.90
10812;DHT22;5458;51.496;7.334;2023-04-15T04:48:34;7.80;99.90
10812;DHT22;5458;51.496;7.334;2023-04-15T04:51:00;7.70;99.90
10812;DHT22;5458;51.496;7.334;2023-04-15T04:53:26;7.80;99.90
10812;DHT22;5458;51.496;7.334;2023-04-15T04:55:52;7.80;99.90
10812;DHT22;5458;51.496;7.334;2023-04-15T04:58:18;7.80;99.90
10812;DHT22;5458;51.496;7.334;2023-04-15T05:00:44;7.80;99.90
10812;DHT22;5458;51.496;7.334;2023-04-15T05:03:10;7.80;99.90
10812;DHT22;5458;51.496;7.334;2023-04-15T05:05:35;7.80;99.90
10812;DHT22;5458;51.496;7.334;2023-04-15T05:08:04;7.80;99.90
10812;DHT22;5458;51.496;7.334;2023-04-15T05:10:30;7.90;99.90
10812;DHT22;5458;51.496;7.334;2023-04-15T05:12:56;7.90;99.90
10812;DHT22;5458;51.496;7.334;2023-04-15T05:15:21;7.90;99.90
10812;DHT22;5458;51.496;7.334;2023-04-15T05:17:47;7.90;99.90
10812;DHT22;5458;51.496;7.334;2023-04-15T05:20:13;7.90;99.90
10812;DHT22;5458;51.496;7.334;2023-04-15T05:22:38;7.90;99.90
10812;DHT22;5458;51.496;7.334;2023-04-15T05:25:04;7.90;99.90
10812;DHT22;5458;51.496;7.334;2023-04-15T05:27:30;8.00;99.90
10812;DHT22;5458;51.496;7.334;2023-04-15T05:29:56;8.10;99.90
10812;DHT22;5458;51.496;7.334;2023-04-15T05:32:21;8.10;99.90
10812;DHT22;5458;51.496;7.334;2023-04-15T05:34:47;8.10;99.90
10812;DHT22;5458;51.496;7.334;2023-04-15T05:37:13;8.20;99.90
10812;DHT22;5458;51.496;7.334;2023-04-15T05:39:38;8.20;99.90
10812;DHT22;5458;51.496;7.334;2023-04-15T05:42:04;8.20;99.90
10812;DHT22;5458;51.496;7.334;2023-04-15T05:44:30;8.30;99.90
10812;DHT22;5458;51.496;7.334;2023-04-15T05:46:56;8.30;99.90
10812;DHT22;5458;51.496;7.334;2023-04-15T05:49:22;8.30;99.90
10812;DHT22;5458;51.496;7.334;2023-04-15T05:51:48;8.40;99.90
10812;DHT22;5458;51.496;7.334;2023-04-15T05:54:13;8.40;99.90
10812;DHT22;5458;51.496;7.334;2023-04-15T05:56:39;8.50;99.90
10812;DHT22;5458;51.496;7.334;2023-04-15T05:59:04;8.50;99.90
10812;DHT22;5458;51.496;7.334;2023-04-15T06:01:31;8.50;99.90
10812;DHT22;5458;51.496;7.334;2023-04-15T06:03:57;8.50;99.90
10812;DHT22;5458;51.496;7.334;2023-04-15T06:06:23;8.70;99.90
10812;DHT22;5458;51.496;7.334;2023-04-15T06:08:48;8.70;99.90
10812;DHT22;5458;51.496;7.334;2023-04-15T06:11:14;8.80;99.90
10812;DHT22;5458;51.496;7.334;2023-04-15T06:13:40;8.90;99.90
10812;DHT22;5458;51.496;7.334;2023-04-15T06:16:06;9.00;99.90
10812;DHT22;5458;51.496;7.334;2023-04-15T06:18:32;9.10;99.90
10812;DHT22;5458;51.496;7.334;2023-04-15T06:20:58;9.20;99.90
10812;DHT22;5458;51.496;7.334;2023-04-15T06:23:23;9.20;99.90
10812;DHT22;5458;51.496;7.334;2023-04-15T06:25:49;9.30;99.90
10812;DHT22;5458;51.496;7.334;2023-04-15T06:28:15;9.40;99.90
10812;DHT22;5458;51.496;7.334;2023-04-15T06:30:40;9.50;99.90
10812;DHT22;5458;51.496;7.334;2023-04-15T06:33:06;9.60;99.90
10812;DHT22;5458;51.496;7.334;2023-04-15T06:35:32;9.80;99.90
10812;DHT22;5458;51.496;7.334;2023-04-15T06:37:57;9.90;99.90
10812;DHT22;5458;51.496;7.334;2023-04-15T06:40:23;10.10;99.90
10812;DHT22;5458;51.496;7.334;2023-04-15T06:42:49;10.30;99.90
10812;DHT22;5458;51.496;7.334;2023-04-15T06:45:14;10.50;99.90
10812;DHT22;5458;51.496;7.334;2023-04-15T06:47:40;10.70;99.90
10812;DHT22;5458;51.496;7.334;2023-04-15T06:50:06;10.80;99.90
10812;DHT22;5458;51.496;7.334;2023-04-15T06:52:34;10.80;99.90
10812;DHT22;5458;51.496;7.334;2023-04-15T06:55:00;10.80;99.90
10812;DHT22;5458;51.496;7.334;2023-04-15T06:57:26;10.70;99.90
10812;DHT22;5458;51.496;7.334;2023-04-15T06:59:53;10.70;99.90
10812;DHT22;5458;51.496;7.334;2023-04-15T07:02:19;10.60;99.90
10812;DHT22;5458;51.496;7.334;2023-04-15T07:04:45;10.50;99.90
10812;DHT22;5458;51.496;7.334;2023-04-15T07:07:31;10.40;99.90
10812;DHT22;5458;51.496;7.334;2023-04-15T07:10:21;10.30;99.90
10812;DHT22;5458;51.496;7.334;2023-04-15T07:15:22;10.30;99.90
10812;DHT22;5458;51.496;7.334;2023-04-15T07:17:48;10.40;99.90
10812;DHT22;5458;51.496;7.334;2023-04-15T07:20:14;10.30;99.90
10812;DHT22;5458;51.496;7.334;2023-04-15T07:26:02;10.40;99.90
10812;DHT22;5458;51.496;7.334;2023-04-15T07:28:28;10.50;99.90
10812;DHT22;5458;51.496;7.334;2023-04-15T07:30:54;10.50;99.90
10812;DHT22;5458;51.496;7.334;2023-04-15T07:33:22;10.60;99.90
10812;DHT22;5458;51.496;7.334;2023-04-15T07:36:09;10.70;99.90
10812;DHT22;5458;51.496;7.334;2023-04-15T07:38:35;10.80;99.90
10812;DHT22;5458;51.496;7.334;2023-04-15T07:41:01;10.90;99.90
10812;DHT22;5458;51.496;7.334;2023-04-15T07:43:27;10.90;99.90
10812;DHT22;5458;51.496;7.334;2023-04-15T07:45:52;11.10;99.90
10812;DHT22;5458;51.496;7.334;2023-04-15T07:48:18;11.00;99.90
10812;DHT22;5458;51.496;7.334;2023-04-15T07:50:43;11.10;99.90
10812;DHT22;5458;51.496;7.334;2023-04-15T07:53:09;11.10;99.90
10812;DHT22;5458;51.496;7.334;2023-04-15T07:55:34;11.10;99.90
10812;DHT22;5458;51.496;7.334;2023-04-15T07:58:00;11.20;99.90
10812;DHT22;5458;51.496;7.334;2023-04-15T08:00:26;11.40;99.90
10812;DHT22;5458;51.496;7.334;2023-04-15T08:02:52;11.50;99.90
10812;DHT22;5458;51.496;7.334;2023-04-15T08:05:18;11.50;99.90
10812;DHT22;5458;51.496;7.334;2023-04-15T08:07:44;11.80;99.90
10812;DHT22;5458;51.496;7.334;2023-04-15T08:10:10;12.10;99.90
10812;DHT22;5458;51.496;7.334;2023-04-15T08:12:36;12.80;99.90
10812;DHT22;5458;51.496;7.334;2023-04-15T08:15:03;13.40;99.40
10812;DHT22;5458;51.496;7.334;2023-04-15T08:17:28;13.80;98.30
10812;DHT22;5458;51.496;7.334;2023-04-15T08:19:54;14.00;97.80
10812;DHT22;5458;51.496;7.334;2023-04-15T08:22:20;13.90;97.10
10812;DHT22;5458;51.496;7.334;2023-04-15T08:24:45;13.70;97.10
10812;DHT22;5458;51.496;7.334;2023-04-15T08:27:11;13.50;97.40
10812;DHT22;5458;51.496;7.334;2023-04-15T08:29:37;13.40;97.40
10812;DHT22;5458;51.496;7.334;2023-04-15T08:32:03;13.20;97.70
10812;DHT22;5458;51.496;7.334;2023-04-15T08:34:29;13.20;98.00
10812;DHT22;5458;51.496;7.334;2023-04-15T08:36:55;13.50;98.10
10812;DHT22;5458;51.496;7.334;2023-04-15T08:39:21;13.90;97.50
10812;DHT22;5458;51.496;7.334;2023-04-15T08:42:10;14.20;97.50
10812;DHT22;5458;51.496;7.334;2023-04-15T08:44:33;14.50;96.90
10812;DHT22;5458;51.496;7.334;2023-04-15T08:47:00;14.40;96.40
10812;DHT22;5458;51.496;7.334;2023-04-15T08:49:28;14.30;96.90
10812;DHT22;5458;51.496;7.334;2023-04-15T08:51:54;14.30;96.40
10812;DHT22;5458;51.496;7.334;2023-04-15T08:54:22;14.10;96.20
10812;DHT22;5458;51.496;7.334;2023-04-15T08:56:48;13.80;96.30
10812;DHT22;5458;51.496;7.334;2023-04-15T08:59:14;13.60;96.80
10812;DHT22;5458;51.496;7.334;2023-04-15T09:01:41;13.40;97.40
10812;DHT22;5458;51.496;7.334;2023-04-15T09:04:06;13.10;97.70
10812;DHT22;5458;51.496;7.334;2023-04-15T09:06:33;12.90;98.10
10812;DHT22;5458;51.496;7.334;2023-04-15T09:08:58;12.70;98.50
10812;DHT22;5458;51.496;7.334;2023-04-15T09:11:24;12.60;98.90
10812;DHT22;5458;51.496;7.334;2023-04-15T09:13:50;12.40;98.90
10812;DHT22;5458;51.496;7.334;2023-04-15T09:16:16;12.40;99.60
10812;DHT22;5458;51.496;7.334;2023-04-15T09:18:43;12.30;99.30
10812;DHT22;5458;51.496;7.334;2023-04-15T09:21:15;12.30;99.50
10812;DHT22;5458;51.496;7.334;2023-04-15T09:23:57;12.20;99.70
10812;DHT22;5458;51.496;7.334;2023-04-15T09:26:38;12.20;99.90
10812;DHT22;5458;51.496;7.334;2023-04-15T09:29:11;12.20;99.90
10812;DHT22;5458;51.496;7.334;2023-04-15T09:31:40;12.20;99.90
10812;DHT22;5458;51.496;7.334;2023-04-15T09:34:07;12.10;99.90
10812;DHT22;5458;51.496;7.334;2023-04-15T09:39:14;12.20;99.90
10812;DHT22;5458;51.496;7.334;2023-04-15T09:41:40;12.20;99.90
10812;DHT22;5458;51.496;7.334;2023-04-15T09:44:06;12.30;99.90
10812;DHT22;5458;51.496;7.334;2023-04-15T09:46:45;12.40;99.90
10812;DHT22;5458;51.496;7.334;2023-04-15T09:49:11;12.50;99.90
10812;DHT22;5458;51.496;7.334;2023-04-15T09:51:37;12.60;99.90
10812;DHT22;5458;51.496;7.334;2023-04-15T09:54:03;12.60;99.90
10812;DHT22;5458;51.496;7.334;2023-04-15T09:56:37;12.50;99.90
10812;DHT22;5458;51.496;7.334;2023-04-15T09:59:07;12.40;99.90
10812;DHT22;5458;51.496;7.334;2023-04-15T10:01:33;12.30;99.90
10812;DHT22;5458;51.496;7.334;2023-04-15T10:04:02;12.30;99.90
10812;DHT22;5458;51.496;7.334;2023-04-15T10:06:29;12.30;99.90
10812;DHT22;5458;51.496;7.334;2023-04-15T10:08:56;12.30;99.90
10812;DHT22;5458;51.496;7.334;2023-04-15T10:11:22;12.30;99.90
10812;DHT22;5458;51.496;7.334;2023-04-15T10:13:49;12.30;99.90
10812;DHT22;5458;51.496;7.334;2023-04-15T10:16:18;12.20;99.90
10812;DHT22;5458;51.496;7.334;2023-04-15T10:18:46;12.30;99.90
10812;DHT22;5458;51.496;7.334;2023-04-15T10:21:13;12.10;99.90
10812;DHT22;5458;51.496;7.334;2023-04-15T10:23:44;12.00;99.90
10812;DHT22;5458;51.496;7.334;2023-04-15T10:26:11;11.90;99.90
10812;DHT22;5458;51.496;7.334;2023-04-15T10:28:37;11.90;99.90
10812;DHT22;5458;51.496;7.334;2023-04-15T10:31:04;12.00;99.90
10812;DHT22;5458;51.496;7.334;2023-04-15T10:33:30;12.10;99.90
10812;DHT22;5458;51.496;7.334;2023-04-15T10:35:56;12.10;99.90
10812;DHT22;5458;51.496;7.334;2023-04-15T10:38:43;12.10;99.90
10812;DHT22;5458;51.496;7.334;2023-04-15T10:41:15;12.00;99.90
10812;DHT22;5458;51.496;7.334;2023-04-15T10:43:54;11.90;99.90
10812;DHT22;5458;51.496;7.334;2023-04-15T10:49:16;11.80;99.90
10812;DHT22;5458;51.496;7.334;2023-04-15T10:51:56;11.80;99.90
10812;DHT22;5458;51.496;7.334;2023-04-15T10:57:15;11.80;99.90
10812;DHT22;5458;51.496;7.334;2023-04-15T11:00:01;11.80;99.90
10812;DHT22;5458;51.496;7.334;2023-04-15T11:05:06;11.90;99.90
10812;DHT22;5458;51.496;7.334;2023-04-15T11:07:53;11.90;99.90
10812;DHT22;5458;51.496;7.334;2023-04-15T11:13:45;11.80;99.90
10812;DHT22;5458;51.496;7.334;2023-04-15T11:15:42;11.80;99.90
10812;DHT22;5458;51.496;7.334;2023-04-15T11:18:21;11.80;99.90
10812;DHT22;5458;51.496;7.334;2023-04-15T11:20:50;11.90;99.90
10812;DHT22;5458;51.496;7.334;2023-04-15T11:23:27;11.80;99.90
10812;DHT22;5458;51.496;7.334;2023-04-15T11:25:57;11.80;99.90
10812;DHT22;5458;51.496;7.334;2023-04-15T11:28:30;11.80;99.90
10812;DHT22;5458;51.496;7.334;2023-04-15T11:30:56;11.70;99.90
10812;DHT22;5458;51.496;7.334;2023-04-15T11:33:23;11.70;99.90
10812;DHT22;5458;51.496;7.334;2023-04-15T11:35:51;11.60;99.90
10812;DHT22;5458;51.496;7.334;2023-04-15T11:38:18;11.70;99.90
10812;DHT22;5458;51.496;7.334;2023-04-15T11:40:44;11.60;99.90
10812;DHT22;5458;51.496;7.334;2023-04-15T11:43:18;11.60;99.90
10812;DHT22;5458;51.496;7.334;2023-04-15T11:45:49;11.60;99.90
10812;DHT22;5458;51.496;7.334;2023-04-15T11:48:16;11.60;99.90
10812;DHT22;5458;51.496;7.334;2023-04-15T11:50:41;11.60;99.90
10812;DHT22;5458;51.496;7.334;2023-04-15T11:53:09;11.70;99.90
10812;DHT22;5458;51.496;7.334;2023-04-15T11:55:49;11.60;99.90
10812;DHT22;5458;51.496;7.334;2023-04-15T11:58:20;11.70;99.90
10812;DHT22;5458;51.496;7.334;2023-04-15T12:00:52;11.70;99.90
10812;DHT22;5458;51.496;7.334;2023-04-15T12:06:13;11.70;99.90
10812;DHT22;5458;51.496;7.334;2023-04-15T12:11:16;11.80;99.90
10812;DHT22;5458;51.496;7.334;2023-04-15T12:13:48;11.90;99.90
10812;DHT22;5458;51.496;7.334;2023-04-15T12:16:18;11.90;99.90
10812;DHT22;5458;51.496;7.334;2023-04-15T12:18:50;11.90;99.90
10812;DHT22;5458;51.496;7.334;2023-04-15T12:21:25;12.00;99.90
10812;DHT22;5458;51.496;7.334;2023-04-15T12:23:56;12.00;99.90
10812;DHT22;5458;51.496;7.334;2023-04-15T12:26:32;12.00;99.90
10812;DHT22;5458;51.496;7.334;2023-04-15T12:31:27;12.00;99.90
10812;DHT22;5458;51.496;7.334;2023-04-15T12:33:57;12.00;99.90
10812;DHT22;5458;51.496;7.334;2023-04-15T12:36:23;12.00;99.90
10812;DHT22;5458;51.496;7.334;2023-04-15T12:38:49;11.90;99.90
10812;DHT22;5458;51.496;7.334;2023-04-15T12:41:15;11.90;99.90
10812;DHT22;5458;51.496;7.334;2023-04-15T12:43:43;11.80;99.90
10812;DHT22;5458;51.496;7.334;2023-04-15T12:46:09;11.80;99.90
10812;DHT22;5458;51.496;7.334;2023-04-15T12:48:35;11.90;99.90
10812;DHT22;5458;51.496;7.334;2023-04-15T12:51:01;11.80;99.90
10812;DHT22;5458;51.496;7.334;2023-04-15T12:53:27;11.80;99.90
10812;DHT22;5458;51.496;7.334;2023-04-15T12:55:53;11.90;99.90
10812;DHT22;5458;51.496;7.334;2023-04-15T12:58:18;11.80;99.90
10812;DHT22;5458;51.496;7.334;2023-04-15T13:00:44;11.80;99.90
10812;DHT22;5458;51.496;7.334;2023-04-15T13:03:10;11.90;99.90
10812;DHT22;5458;51.496;7.334;2023-04-15T13:05:37;11.90;99.90
10812;DHT22;5458;51.496;7.334;2023-04-15T13:08:04;11.80;99.90
10812;DHT22;5458;51.496;7.334;2023-04-15T13:10:30;11.90;99.90
10812;DHT22;5458;51.496;7.334;2023-04-15T13:12:56;11.90;99.90
10812;DHT22;5458;51.496;7.334;2023-04-15T13:15:22;11.80;99.90
10812;DHT22;5458;51.496;7.334;2023-04-15T13:30:31;12.00;99.90
10812;DHT22;5458;51.496;7.334;2023-04-15T13:32:57;12.10;99.90
10812;DHT22;5458;51.496;7.334;2023-04-15T13:35:23;12.10;99.90
10812;DHT22;5458;51.496;7.334;2023-04-15T13:37:48;12.10;99.90
10812;DHT22;5458;51.496;7.334;2023-04-15T13:40:14;11.90;99.90
10812;DHT22;5458;51.496;7.334;2023-04-15T13:42:40;11.90;99.90
10812;DHT22;5458;51.496;7.334;2023-04-15T13:45:07;11.80;99.90
10812;DHT22;5458;51.496;7.334;2023-04-15T13:47:33;11.80;99.90
10812;DHT22;5458;51.496;7.334;2023-04-15T13:49:58;11.70;99.90
10812;DHT22;5458;51.496;7.334;2023-04-15T13:52:24;11.70;99.90
10812;DHT22;5458;51.496;7.334;2023-04-15T13:54:50;11.80;99.90
10812;DHT22;5458;51.496;7.334;2023-04-15T13:57:16;11.80;99.90
10812;DHT22;5458;51.496;7.334;2023-04-15T13:59:41;11.70;99.90
10812;DHT22;5458;51.496;7.334;2023-04-15T14:02:08;11.80;99.90
10812;DHT22;5458;51.496;7.334;2023-04-15T14:04:34;11.80;99.90
10812;DHT22;5458;51.496;7.334;2023-04-15T14:06:59;11.70;99.90
10812;DHT22;5458;51.496;7.334;2023-04-15T14:09:25;11.70;99.90
10812;DHT22;5458;51.496;7.334;2023-04-15T14:11:51;11.60;99.90
10812;DHT22;5458;51.496;7.334;2023-04-15T14:14:17;11.60;99.90
10812;DHT22;5458;51.496;7.334;2023-04-15T14:16:42;11.70;99.90
10812;DHT22;5458;51.496;7.334;2023-04-15T14:19:08;11.70;99.90
10812;DHT22;5458;51.496;7.334;2023-04-15T14:21:33;11.70;99.90
10812;DHT22;5458;51.496;7.334;2023-04-15T14:23:59;11.70;99.90
10812;DHT22;5458;51.496;7.334;2023-04-15T14:26:25;11.70;99.90
10812;DHT22;5458;51.496;7.334;2023-04-15T14:28:50;11.70;99.90
10812;DHT22;5458;51.496;7.334;2023-04-15T14:31:17;11.70;99.90
10812;DHT22;5458;51.496;7.334;2023-04-15T14:33:43;11.60;99.90
10812;DHT22;5458;51.496;7.334;2023-04-15T14:36:09;11.50;99.90
10812;DHT22;5458;51.496;7.334;2023-04-15T14:38:35;11.50;99.90
10812;DHT22;5458;51.496;7.334;2023-04-15T14:41:05;11.50;99.90
10812;DHT22;5458;51.496;7.334;2023-04-15T14:43:31;11.50;99.90
10812;DHT22;5458;51.496;7.334;2023-04-15T14:45:56;11.40;99.90
10812;DHT22;5458;51.496;7.334;2023-04-15T14:48:22;11.40;99.90
10812;DHT22;5458;51.496;7.334;2023-04-15T14:50:48;11.40;99.90
10812;DHT22;5458;51.496;7.334;2023-04-15T14:53:13;11.40;99.90
10812;DHT22;5458;51.496;7.334;2023-04-15T14:55:39;11.40;99.90
10812;DHT22;5458;51.496;7.334;2023-04-15T14:58:05;11.30;99.90
10812;DHT22;5458;51.496;7.334;2023-04-15T15:00:32;11.40;99.90
10812;DHT22;5458;51.496;7.334;2023-04-15T15:03:14;11.30;99.90
10812;DHT22;5458;51.496;7.334;2023-04-15T15:05:41;11.40;99.90
10812;DHT22;5458;51.496;7.334;2023-04-15T15:08:07;11.50;99.90
10812;DHT22;5458;51.496;7.334;2023-04-15T15:10:34;11.40;99.90
10812;DHT22;5458;51.496;7.334;2023-04-15T15:13:04;11.40;99.90
10812;DHT22;5458;51.496;7.334;2023-04-15T15:15:54;11.40;99.90
10812;DHT22;5458;51.496;7.334;2023-04-15T15:18:19;11.40;99.90
10812;DHT22;5458;51.496;7.334;2023-04-15T15:21:16;11.40;99.90
10812;DHT22;5458;51.496;7.334;2023-04-15T15:23:42;11.40;99.90
10812;DHT22;5458;51.496;7.334;2023-04-15T15:26:08;11.40;99.90
10812;DHT22;5458;51.496;7.334;2023-04-15T15:28:34;11.30;99.90
10812;DHT22;5458;51.496;7.334;2023-04-15T15:30:59;11.30;99.90
10812;DHT22;5458;51.496;7.334;2023-04-15T15:33:25;11.20;99.90
10812;DHT22;5458;51.496;7.334;2023-04-15T15:35:50;11.20;99.90
10812;DHT22;5458;51.496;7.334;2023-04-15T15:38:16;11.10;99.90
10812;DHT22;5458;51.496;7.334;2023-04-15T15:40:42;11.10;99.90
10812;DHT22;5458;51.496;7.334;2023-04-15T15:43:07;11.10;99.90
10812;DHT22;5458;51.496;7.334;2023-04-15T15:45:34;11.00;99.90
10812;DHT22;5458;51.496;7.334;2023-04-15T15:48:00;11.00;99.90
10812;DHT22;5458;51.496;7.334;2023-04-15T15:50:26;11.00;99.90
10812;DHT22;5458;51.496;7.334;2023-04-15T15:52:51;11.00;99.90
10812;DHT22;5458;51.496;7.334;2023-04-15T15:55:17;11.00;99.90
10812;DHT22;5458;51.496;7.334;2023-04-15T15:57:43;10.90;99.90
10812;DHT22;5458;51.496;7.334;2023-04-15T16:00:09;10.90;99.90
10812;DHT22;5458;51.496;7.334;2023-04-15T16:02:35;10.90;99.90
10812;DHT22;5458;51.496;7.334;2023-04-15T16:05:01;10.90;99.90
10812;DHT22;5458;51.496;7.334;2023-04-15T16:07:27;10.80;99.90
10812;DHT22;5458;51.496;7.334;2023-04-15T16:09:52;10.90;99.90
10812;DHT22;5458;51.496;7.334;2023-04-15T16:12:18;10.80;99.90
10812;DHT22;5458;51.496;7.334;2023-04-15T16:14:44;10.90;99.90
10812;DHT22;5458;51.496;7.334;2023-04-15T16:17:11;10.80;99.90
10812;DHT22;5458;51.496;7.334;2023-04-15T16:19:37;10.80;99.90
10812;DHT22;5458;51.496;7.334;2023-04-15T16:22:02;10.80;99.90
10812;DHT22;5458;51.496;7.334;2023-04-15T16:24:28;10.80;99.90
10812;DHT22;5458;51.496;7.334;2023-04-15T16:26:54;10.90;99.90
10812;DHT22;5458;51.496;7.334;2023-04-15T16:29:22;10.90;99.90
10812;DHT22;5458;51.496;7.334;2023-04-15T16:31:48;10.90;99.90